Weather at Newport News Williamsburg International Airport

Public forecast

Using degrees Fahrenheit for public forecast. Weather courtesy of forecast.io.

Current aviation weather report (METAR) for Newport News Williamsburg International Airport

2024/05/28 04:54 (retrieved 6 minutes ago)

KPHF 280454Z AUTO 23006KT 10SM CLR 21/20 A2981 RMK AO2 SLP094 T02110200 402830206

Closest aviation forecast (TAF) to Newport News Williamsburg International Airport

Forecast is more than 12 hours old.

Closest forecast is Langley Air Force Base, 7.0 nm (13.0 km) ESE.

2024/05/26 09:38 (retrieved 2 days ago)

TAF KLFI 260900Z 2609/2715 VRB06KT 9999 FEW055 SCT240 QNH2981INS BECMG 2620/2621 13009KT 9000 -SHRA FEW045 SCT065 BKN290 QNH2979INS BECMG 2701/2702 19009KT 9999 NSW FEW040 SCT055 OVC080 QNH2976INS BECMG 2714/2715 23020G25KT 8000 -TSRA SCT010CB BKN025 QNH2974INS TX26/2620Z TN20/2612Z